Time,TemperatureF,DewpointF,PressureIn,WindDirection,WindDirectionDegrees,WindSpeedMPH,WindSpeedGustMPH,Humidity,HourlyPrecipIn,Conditions,Clouds,dailyrainin,SolarRadiationWatts/m^2,SoftwareType,DateUTC
2013-04-26 00:03:00,46.0,22.0,-100.00,WNW,295,5.0,10.0,39,0.00,,,0.01,0.000000,,2013-04-26 04:03:00,
2013-04-26 00:33:00,45.0,27.0,-100.00,WNW,303,6.0,15.0,50,0.00,,,0.00,0.000000,,2013-04-26 04:33:00,
2013-04-26 00:43:00,45.0,27.0,-100.00,WNW,303,6.0,15.0,50,0.00,,,0.00,0.000000,,2013-04-26 04:43:00,
2013-04-26 00:53:00,45.0,27.0,-100.00,WNW,303,6.0,15.0,50,0.00,,,0.00,0.000000,,2013-04-26 04:53:00,
2013-04-26 01:02:00,45.0,27.0,-100.00,WNW,303,6.0,15.0,50,0.00,,,0.00,0.000000,,2013-04-26 05:02:00,
2013-04-26 01:32:00,42.0,31.0,-100.00,NW,306,7.0,18.0,65,0.00,,,0.00,0.000000,,2013-04-26 05:32:00,
2013-04-26 01:42:00,42.0,31.0,-100.00,NW,306,7.0,18.0,65,0.00,,,0.00,0.000000,,2013-04-26 05:42:00,
2013-04-26 01:52:00,42.0,31.0,-100.00,NW,306,7.0,18.0,65,0.00,,,0.00,0.000000,,2013-04-26 05:52:00,
2013-04-26 02:02:00,42.0,31.0,-100.00,NW,306,7.0,18.0,65,0.00,,,0.00,0.000000,,2013-04-26 06:02:00,
2013-04-26 02:32:00,42.0,31.0,-100.00,WNW,303,6.0,15.0,64,0.00,,,-99.99,0.000000,,2013-04-26 06:32:00,
2013-04-26 02:42:00,42.0,31.0,-100.00,WNW,303,6.0,15.0,64,0.00,,,-99.99,0.000000,,2013-04-26 06:42:00,
2013-04-26 02:52:00,42.0,31.0,-100.00,WNW,303,6.0,15.0,64,0.00,,,-99.99,0.000000,,2013-04-26 06:52:00,
2013-04-26 03:01:00,42.0,31.0,-100.00,WNW,303,6.0,15.0,64,0.00,,,-99.99,0.000000,,2013-04-26 07:01:00,
2013-04-26 03:32:00,41.0,31.0,-100.00,WNW,300,5.0,17.0,67,0.00,,,0.00,0.000000,,2013-04-26 07:32:00,
2013-04-26 03:42:00,41.0,31.0,-100.00,WNW,300,5.0,17.0,67,0.00,,,0.00,0.000000,,2013-04-26 07:42:00,
2013-04-26 03:52:00,41.0,31.0,-100.00,WNW,300,5.0,17.0,67,0.00,,,0.00,0.000000,,2013-04-26 07:52:00,
2013-04-26 04:03:00,41.0,31.0,-100.00,WNW,300,5.0,17.0,67,0.00,,,0.00,0.000000,,2013-04-26 08:03:00,
2013-04-26 04:32:00,37.0,30.0,-100.00,WNW,301,4.0,8.0,76,0.00,,,0.00,0.000000,,2013-04-26 08:32:00,
2013-04-26 04:42:00,37.0,30.0,-100.00,WNW,301,4.0,8.0,76,0.00,,,0.00,0.000000,,2013-04-26 08:42:00,
2013-04-26 04:52:00,37.0,30.0,-100.00,WNW,301,4.0,8.0,76,0.00,,,0.00,0.000000,,2013-04-26 08:52:00,
2013-04-26 05:02:00,37.0,30.0,-100.00,WNW,301,4.0,8.0,76,0.00,,,0.00,0.000000,,2013-04-26 09:02:00,
2013-04-26 05:33:00,35.0,30.0,-100.00,WNW,298,3.0,8.0,82,0.00,,,0.00,0.000000,,2013-04-26 09:33:00,
2013-04-26 05:43:00,35.0,30.0,-100.00,WNW,298,3.0,8.0,82,0.00,,,0.00,0.000000,,2013-04-26 09:43:00,
2013-04-26 05:53:00,35.0,30.0,-100.00,WNW,298,3.0,8.0,82,0.00,,,0.00,0.000000,,2013-04-26 09:53:00,
2013-04-26 06:03:00,35.0,30.0,-100.00,WNW,298,3.0,8.0,82,0.00,,,0.00,0.000000,,2013-04-26 10:03:00,
2013-04-26 06:33:00,34.0,31.0,-100.00,NW,320,1.0,5.0,90,0.00,,,0.00,0.000000,,2013-04-26 10:33:00,
2013-04-26 06:42:00,34.0,31.0,-100.00,NW,320,1.0,5.0,90,0.00,,,0.00,0.000000,,2013-04-26 10:42:00,
2013-04-26 06:52:00,34.0,31.0,-100.00,NW,320,1.0,5.0,90,0.00,,,0.00,0.000000,,2013-04-26 10:52:00,
2013-04-26 07:02:00,34.0,31.0,-100.00,NW,320,1.0,5.0,90,0.00,,,0.00,0.000000,,2013-04-26 11:02:00,
2013-04-26 07:32:00,34.0,31.0,-100.00,NNW,338,1.0,3.0,90,0.00,,,0.00,21.000000,,2013-04-26 11:32:00,
2013-04-26 07:42:00,34.0,31.0,-100.00,NNW,338,1.0,3.0,90,0.00,,,0.00,21.000000,,2013-04-26 11:42:00,
2013-04-26 07:52:00,34.0,31.0,-100.00,NNW,338,1.0,3.0,90,0.00,,,0.00,21.000000,,2013-04-26 11:52:00,
2013-04-26 08:02:00,34.0,31.0,-100.00,NNW,338,1.0,3.0,90,0.00,,,0.00,21.000000,,2013-04-26 12:02:00,
2013-04-26 08:32:00,43.0,36.0,-100.00,NNW,336,3.0,7.0,75,0.00,,,-99.99,161.000000,,2013-04-26 12:32:00,
2013-04-26 08:42:00,43.0,36.0,-100.00,NNW,336,3.0,7.0,75,0.00,,,-99.99,161.000000,,2013-04-26 12:42:00,
2013-04-26 08:52:00,43.0,36.0,-100.00,NNW,336,3.0,7.0,75,0.00,,,-99.99,161.000000,,2013-04-26 12:52:00,
2013-04-26 09:01:00,43.0,36.0,-100.00,NNW,336,3.0,7.0,75,0.00,,,-99.99,161.000000,,2013-04-26 13:01:00,
2013-04-26 09:32:00,46.0,32.0,-100.00,NNW,343,4.0,9.0,58,0.00,,,0.00,382.000000,,2013-04-26 13:32:00,
2013-04-26 09:42:00,46.0,32.0,-100.00,NNW,343,4.0,9.0,58,0.00,,,0.00,382.000000,,2013-04-26 13:42:00,
2013-04-26 09:52:00,46.0,32.0,-100.00,NNW,343,4.0,9.0,58,0.00,,,0.00,382.000000,,2013-04-26 13:52:00,
2013-04-26 10:02:00,46.0,32.0,-100.00,NNW,343,4.0,9.0,58,0.00,,,0.00,382.000000,,2013-04-26 14:02:00,
2013-04-26 10:32:00,48.0,25.0,-100.00,NW,324,5.0,13.0,40,0.00,,,0.00,573.000000,,2013-04-26 14:32:00,
2013-04-26 10:42:00,48.0,25.0,-100.00,NW,324,5.0,13.0,40,0.00,,,0.00,573.000000,,2013-04-26 14:42:00,
2013-04-26 10:52:00,48.0,25.0,-100.00,NW,324,5.0,13.0,40,0.00,,,0.00,573.000000,,2013-04-26 14:52:00,
2013-04-26 11:01:00,48.0,25.0,-100.00,NW,324,5.0,13.0,40,0.00,,,0.00,573.000000,,2013-04-26 15:01:00,
2013-04-26 11:33:00,50.0,25.0,-100.00,North,358,6.0,14.0,37,0.00,,,0.00,732.000000,,2013-04-26 15:33:00,
2013-04-26 11:43:00,50.0,25.0,-100.00,North,358,6.0,14.0,37,0.00,,,0.00,732.000000,,2013-04-26 15:43:00,
2013-04-26 11:53:00,50.0,25.0,-100.00,North,358,6.0,14.0,37,0.00,,,0.00,732.000000,,2013-04-26 15:53:00,
2013-04-26 12:03:00,50.0,25.0,-100.00,North,358,6.0,14.0,37,0.00,,,0.00,732.000000,,2013-04-26 16:03:00,
2013-04-26 12:33:00,53.0,22.0,-100.00,NW,313,5.0,17.0,29,0.00,,,0.00,843.000000,,2013-04-26 16:33:00,
2013-04-26 12:42:00,53.0,22.0,-100.00,NW,313,5.0,17.0,29,0.00,,,0.00,843.000000,,2013-04-26 16:42:00,
2013-04-26 12:53:00,53.0,22.0,-100.00,NW,313,5.0,17.0,29,0.00,,,0.00,843.000000,,2013-04-26 16:53:00,
2013-04-26 13:02:00,53.0,22.0,-100.00,NW,313,5.0,17.0,29,0.00,,,0.00,843.000000,,2013-04-26 17:02:00,
2013-04-26 13:32:00,54.0,22.0,-100.00,ENE,61,6.0,14.0,29,0.00,,,0.00,897.000000,,2013-04-26 17:32:00,
2013-04-26 13:42:00,54.0,22.0,-100.00,ENE,61,6.0,14.0,29,0.00,,,0.00,897.000000,,2013-04-26 17:42:00,
2013-04-26 13:52:00,54.0,22.0,-100.00,ENE,61,6.0,14.0,29,0.00,,,0.00,897.000000,,2013-04-26 17:52:00,
2013-04-26 14:02:00,54.0,22.0,-100.00,ENE,61,6.0,14.0,29,0.00,,,0.00,897.000000,,2013-04-26 18:02:00,
2013-04-26 14:33:00,56.0,22.0,-100.00,WSW,242,5.0,12.0,26,0.00,,,0.00,868.000000,,2013-04-26 18:33:00,
2013-04-26 14:42:00,56.0,22.0,-100.00,WSW,242,5.0,12.0,26,0.00,,,0.00,868.000000,,2013-04-26 18:42:00,
2013-04-26 14:52:00,56.0,22.0,-100.00,WSW,242,5.0,12.0,26,0.00,,,0.00,868.000000,,2013-04-26 18:52:00,
2013-04-26 15:02:00,56.0,22.0,-100.00,WSW,242,5.0,12.0,26,0.00,,,0.00,868.000000,,2013-04-26 19:02:00,
2013-04-26 15:32:00,57.0,21.0,-100.00,SW,230,6.0,12.0,24,0.00,,,0.00,776.000000,,2013-04-26 19:32:00,
2013-04-26 15:42:00,57.0,21.0,-100.00,SW,230,6.0,12.0,24,0.00,,,0.00,776.000000,,2013-04-26 19:42:00,
2013-04-26 15:52:00,57.0,21.0,-100.00,SW,230,6.0,12.0,24,0.00,,,0.00,776.000000,,2013-04-26 19:52:00,
2013-04-26 16:02:00,57.0,21.0,-100.00,SW,230,6.0,12.0,24,0.00,,,0.00,776.000000,,2013-04-26 20:02:00,
2013-04-26 16:32:00,59.0,20.0,-100.00,West,273,6.0,11.0,22,0.00,,,0.00,751.000000,,2013-04-26 20:32:00,
2013-04-26 16:42:00,59.0,20.0,-100.00,West,273,6.0,11.0,22,0.00,,,0.00,751.000000,,2013-04-26 20:42:00,
2013-04-26 16:52:00,59.0,20.0,-100.00,West,273,6.0,11.0,22,0.00,,,0.00,751.000000,,2013-04-26 20:52:00,
2013-04-26 17:02:00,59.0,20.0,-100.00,West,273,6.0,11.0,22,0.00,,,0.00,751.000000,,2013-04-26 21:02:00,
2013-04-26 17:33:00,59.0,18.0,-100.00,WSW,257,6.0,13.0,20,0.00,,,0.00,600.000000,,2013-04-26 21:33:00,
2013-04-26 17:42:00,59.0,18.0,-100.00,WSW,257,6.0,13.0,20,0.00,,,0.00,600.000000,,2013-04-26 21:42:00,
2013-04-26 17:53:00,59.0,18.0,-100.00,WSW,257,6.0,13.0,20,0.00,,,0.00,600.000000,,2013-04-26 21:53:00,
2013-04-26 18:03:00,59.0,18.0,-100.00,WSW,257,6.0,13.0,20,0.00,,,0.00,600.000000,,2013-04-26 22:03:00,
2013-04-26 18:33:00,59.0,17.0,-100.00,NW,306,3.0,12.0,19,0.00,,,0.00,414.000000,,2013-04-26 22:33:00,
2013-04-26 18:42:00,59.0,17.0,-100.00,NW,306,3.0,12.0,19,0.00,,,0.00,414.000000,,2013-04-26 22:42:00,
2013-04-26 18:52:00,59.0,17.0,-100.00,NW,306,3.0,12.0,19,0.00,,,0.00,414.000000,,2013-04-26 22:52:00,
2013-04-26 19:02:00,59.0,17.0,-100.00,NW,306,3.0,12.0,19,0.00,,,0.00,414.000000,,2013-04-26 23:02:00,
2013-04-26 19:32:00,55.0,16.0,-100.00,WNW,300,3.0,9.0,21,0.00,,,0.00,152.000000,,2013-04-26 23:32:00,
2013-04-26 19:42:00,55.0,16.0,-100.00,WNW,300,3.0,9.0,21,0.00,,,0.00,152.000000,,2013-04-26 23:42:00,
2013-04-26 19:52:00,55.0,16.0,-100.00,WNW,300,3.0,9.0,21,0.00,,,0.00,152.000000,,2013-04-26 23:52:00,
2013-04-26 20:01:00,55.0,16.0,-100.00,WNW,300,3.0,9.0,21,0.00,,,0.00,152.000000,,2013-04-27 00:01:00,
2013-04-26 20:32:00,51.0,17.0,-100.00,NNE,17,2.0,5.0,26,0.00,,,0.00,20.000000,,2013-04-27 00:32:00,
2013-04-26 20:42:00,51.0,17.0,-100.00,NNE,17,2.0,5.0,26,0.00,,,0.00,20.000000,,2013-04-27 00:42:00,
2013-04-26 20:52:00,51.0,17.0,-100.00,NNE,17,2.0,5.0,26,0.00,,,0.00,20.000000,,2013-04-27 00:52:00,
2013-04-26 21:01:00,51.0,17.0,-100.00,NNE,17,2.0,5.0,26,0.00,,,0.00,20.000000,,2013-04-27 01:01:00,
2013-04-26 21:32:00,47.0,16.0,-100.00,NW,312,1.0,3.0,29,0.00,,,0.00,0.000000,,2013-04-27 01:32:00,
2013-04-26 21:42:00,47.0,16.0,-100.00,NW,312,1.0,3.0,29,0.00,,,0.00,0.000000,,2013-04-27 01:42:00,
2013-04-26 21:52:00,47.0,16.0,-100.00,NW,312,1.0,3.0,29,0.00,,,0.00,0.000000,,2013-04-27 01:52:00,
2013-04-26 22:02:00,47.0,16.0,-100.00,NW,312,1.0,3.0,29,0.00,,,0.00,0.000000,,2013-04-27 02:02:00,
2013-04-26 22:32:00,43.0,19.0,-100.00,NNW,347,2.0,3.0,38,0.00,,,0.00,0.000000,,2013-04-27 02:32:00,
2013-04-26 22:42:00,43.0,19.0,-100.00,NNW,347,2.0,3.0,38,0.00,,,0.00,0.000000,,2013-04-27 02:42:00,
2013-04-26 22:52:00,43.0,19.0,-100.00,NNW,347,2.0,3.0,38,0.00,,,0.00,0.000000,,2013-04-27 02:52:00,
2013-04-26 23:02:00,43.0,19.0,-100.00,NNW,347,2.0,3.0,38,0.00,,,0.00,0.000000,,2013-04-27 03:02:00,
2013-04-26 23:33:00,41.0,19.0,-100.00,NNW,328,0.0,2.0,41,0.00,,,0.00,0.000000,,2013-04-27 03:33:00,
2013-04-26 23:43:00,41.0,19.0,-100.00,NNW,328,0.0,2.0,41,0.00,,,0.00,0.000000,,2013-04-27 03:43:00,
2013-04-26 23:53:00,41.0,19.0,-100.00,NNW,328,0.0,2.0,41,0.00,,,0.00,0.000000,,2013-04-27 03:53:00,